sensor_id;sensor_type;location;lat;lon;timestamp;temperature;humidity
71155;DHT22;59375;53.216;5.728;2022-07-25T00:01:34;22.70;91.50
71155;DHT22;59375;53.216;5.728;2022-07-25T00:04:00;22.70;91.50
71155;DHT22;59375;53.216;5.728;2022-07-25T00:06:25;22.70;91.50
71155;DHT22;59375;53.216;5.728;2022-07-25T00:08:51;22.70;91.50
71155;DHT22;59375;53.216;5.728;2022-07-25T00:11:17;22.70;91.50
71155;DHT22;59375;53.216;5.728;2022-07-25T00:13:42;22.70;91.50
71155;DHT22;59375;53.216;5.728;2022-07-25T00:16:08;22.70;91.50
71155;DHT22;59375;53.216;5.728;2022-07-25T00:18:33;22.70;91.70
71155;DHT22;59375;53.216;5.728;2022-07-25T00:20:59;22.60;91.90
71155;DHT22;59375;53.216;5.728;2022-07-25T00:23:24;22.50;92.10
71155;DHT22;59375;53.216;5.728;2022-07-25T00:25:50;22.40;92.30
71155;DHT22;59375;53.216;5.728;2022-07-25T00:28:15;22.30;92.40
71155;DHT22;59375;53.216;5.728;2022-07-25T00:30:41;22.30;92.60
71155;DHT22;59375;53.216;5.728;2022-07-25T00:33:07;22.30;92.70
71155;DHT22;59375;53.216;5.728;2022-07-25T00:35:32;22.30;92.60
71155;DHT22;59375;53.216;5.728;2022-07-25T00:37:58;22.30;92.50
71155;DHT22;59375;53.216;5.728;2022-07-25T00:40:23;22.30;92.40
71155;DHT22;59375;53.216;5.728;2022-07-25T00:42:49;22.30;92.50
71155;DHT22;59375;53.216;5.728;2022-07-25T00:45:15;22.30;92.40
71155;DHT22;59375;53.216;5.728;2022-07-25T00:47:41;22.40;92.40
71155;DHT22;59375;53.216;5.728;2022-07-25T00:50:07;22.30;92.60
71155;DHT22;59375;53.216;5.728;2022-07-25T00:52:33;22.20;92.70
71155;DHT22;59375;53.216;5.728;2022-07-25T00:55:00;22.10;92.90
71155;DHT22;59375;53.216;5.728;2022-07-25T00:57:25;21.80;93.20
71155;DHT22;59375;53.216;5.728;2022-07-25T00:59:51;21.60;93.50
71155;DHT22;59375;53.216;5.728;2022-07-25T01:02:17;21.50;93.90
71155;DHT22;59375;53.216;5.728;2022-07-25T01:04:42;21.20;94.40
71155;DHT22;59375;53.216;5.728;2022-07-25T01:07:08;21.00;94.90
71155;DHT22;59375;53.216;5.728;2022-07-25T01:09:34;20.90;95.20
71155;DHT22;59375;53.216;5.728;2022-07-25T01:12:00;20.80;95.40
71155;DHT22;59375;53.216;5.728;2022-07-25T01:14:26;20.80;95.50
71155;DHT22;59375;53.216;5.728;2022-07-25T01:16:51;20.80;95.50
71155;DHT22;59375;53.216;5.728;2022-07-25T01:19:17;20.90;95.60
71155;DHT22;59375;53.216;5.728;2022-07-25T01:21:42;20.90;95.60
71155;DHT22;59375;53.216;5.728;2022-07-25T01:24:08;21.00;95.60
71155;DHT22;59375;53.216;5.728;2022-07-25T01:26:36;21.00;95.40
71155;DHT22;59375;53.216;5.728;2022-07-25T01:29:02;21.10;95.10
71155;DHT22;59375;53.216;5.728;2022-07-25T01:31:28;21.20;94.90
71155;DHT22;59375;53.216;5.728;2022-07-25T01:33:53;21.30;94.60
71155;DHT22;59375;53.216;5.728;2022-07-25T01:36:19;21.40;94.40
71155;DHT22;59375;53.216;5.728;2022-07-25T01:38:44;21.40;94.10
71155;DHT22;59375;53.216;5.728;2022-07-25T01:41:10;21.50;93.70
71155;DHT22;59375;53.216;5.728;2022-07-25T01:43:35;21.60;93.40
71155;DHT22;59375;53.216;5.728;2022-07-25T01:46:01;21.60;93.00
71155;DHT22;59375;53.216;5.728;2022-07-25T01:48:26;21.70;92.80
71155;DHT22;59375;53.216;5.728;2022-07-25T01:50:52;21.80;92.60
71155;DHT22;59375;53.216;5.728;2022-07-25T01:53:17;21.80;92.50
71155;DHT22;59375;53.216;5.728;2022-07-25T01:55:46;21.90;92.40
71155;DHT22;59375;53.216;5.728;2022-07-25T01:58:12;22.00;92.30
71155;DHT22;59375;53.216;5.728;2022-07-25T02:00:37;22.00;92.20
71155;DHT22;59375;53.216;5.728;2022-07-25T02:03:04;22.00;92.00
71155;DHT22;59375;53.216;5.728;2022-07-25T02:05:48;22.00;91.90
71155;DHT22;59375;53.216;5.728;2022-07-25T02:08:14;22.00;91.70
71155;DHT22;59375;53.216;5.728;2022-07-25T02:10:40;22.00;91.80
71155;DHT22;59375;53.216;5.728;2022-07-25T02:13:06;22.00;91.80
71155;DHT22;59375;53.216;5.728;2022-07-25T02:15:31;21.90;91.80
71155;DHT22;59375;53.216;5.728;2022-07-25T02:17:57;21.90;91.70
71155;DHT22;59375;53.216;5.728;2022-07-25T02:20:22;22.00;91.60
71155;DHT22;59375;53.216;5.728;2022-07-25T02:22:48;22.00;91.50
71155;DHT22;59375;53.216;5.728;2022-07-25T02:25:14;22.00;91.60
71155;DHT22;59375;53.216;5.728;2022-07-25T02:27:39;22.00;91.60
71155;DHT22;59375;53.216;5.728;2022-07-25T02:30:06;22.00;91.70
71155;DHT22;59375;53.216;5.728;2022-07-25T02:32:31;22.00;91.70
71155;DHT22;59375;53.216;5.728;2022-07-25T02:34:57;22.00;91.80
71155;DHT22;59375;53.216;5.728;2022-07-25T02:37:23;21.80;92.20
71155;DHT22;59375;53.216;5.728;2022-07-25T02:39:49;21.70;92.30
71155;DHT22;59375;53.216;5.728;2022-07-25T02:42:14;21.50;92.50
71155;DHT22;59375;53.216;5.728;2022-07-25T02:44:40;21.30;93.00
71155;DHT22;59375;53.216;5.728;2022-07-25T02:47:06;21.20;93.20
71155;DHT22;59375;53.216;5.728;2022-07-25T02:49:31;21.10;93.10
71155;DHT22;59375;53.216;5.728;2022-07-25T02:51:57;21.10;92.90
71155;DHT22;59375;53.216;5.728;2022-07-25T02:54:22;21.20;92.70
71155;DHT22;59375;53.216;5.728;2022-07-25T02:56:48;21.20;92.60
71155;DHT22;59375;53.216;5.728;2022-07-25T02:59:13;21.30;92.60
71155;DHT22;59375;53.216;5.728;2022-07-25T03:01:39;21.30;92.50
71155;DHT22;59375;53.216;5.728;2022-07-25T03:04:04;21.30;92.70
71155;DHT22;59375;53.216;5.728;2022-07-25T03:06:30;21.30;92.30
71155;DHT22;59375;53.216;5.728;2022-07-25T03:08:56;21.30;92.10
71155;DHT22;59375;53.216;5.728;2022-07-25T03:11:21;21.40;92.00
71155;DHT22;59375;53.216;5.728;2022-07-25T03:13:47;21.40;91.90
71155;DHT22;59375;53.216;5.728;2022-07-25T03:16:12;21.40;91.90
71155;DHT22;59375;53.216;5.728;2022-07-25T03:18:38;21.50;91.90
71155;DHT22;59375;53.216;5.728;2022-07-25T03:21:04;21.40;91.80
71155;DHT22;59375;53.216;5.728;2022-07-25T03:23:30;21.40;91.90
71155;DHT22;59375;53.216;5.728;2022-07-25T03:25:55;21.50;91.80
71155;DHT22;59375;53.216;5.728;2022-07-25T03:28:21;21.50;91.70
71155;DHT22;59375;53.216;5.728;2022-07-25T03:30:47;21.50;91.60
71155;DHT22;59375;53.216;5.728;2022-07-25T03:33:13;21.60;91.60
71155;DHT22;59375;53.216;5.728;2022-07-25T03:35:38;21.50;91.40
71155;DHT22;59375;53.216;5.728;2022-07-25T03:38:04;21.50;91.30
71155;DHT22;59375;53.216;5.728;2022-07-25T03:40:29;21.60;91.30
71155;DHT22;59375;53.216;5.728;2022-07-25T03:42:56;21.60;91.40
71155;DHT22;59375;53.216;5.728;2022-07-25T03:45:22;21.60;91.50
71155;DHT22;59375;53.216;5.728;2022-07-25T03:47:47;21.50;91.50
71155;DHT22;59375;53.216;5.728;2022-07-25T03:50:13;21.40;91.60
71155;DHT22;59375;53.216;5.728;2022-07-25T03:52:38;21.30;91.90
71155;DHT22;59375;53.216;5.728;2022-07-25T03:55:05;21.20;92.20
71155;DHT22;59375;53.216;5.728;2022-07-25T03:57:31;21.10;92.40
71155;DHT22;59375;53.216;5.728;2022-07-25T03:59:57;21.00;92.60
71155;DHT22;59375;53.216;5.728;2022-07-25T04:02:22;21.00;92.80
71155;DHT22;59375;53.216;5.728;2022-07-25T04:04:48;20.90;92.90
71155;DHT22;59375;53.216;5.728;2022-07-25T04:07:13;20.90;93.00
71155;DHT22;59375;53.216;5.728;2022-07-25T04:09:39;20.80;93.20
71155;DHT22;59375;53.216;5.728;2022-07-25T04:12:04;20.80;93.30
71155;DHT22;59375;53.216;5.728;2022-07-25T04:14:30;20.80;93.30
71155;DHT22;59375;53.216;5.728;2022-07-25T04:16:56;20.80;93.30
71155;DHT22;59375;53.216;5.728;2022-07-25T04:19:21;20.80;93.30
71155;DHT22;59375;53.216;5.728;2022-07-25T04:21:47;20.90;93.20
71155;DHT22;59375;53.216;5.728;2022-07-25T04:24:12;20.90;93.10
71155;DHT22;59375;53.216;5.728;2022-07-25T04:26:38;21.00;93.10
71155;DHT22;59375;53.216;5.728;2022-07-25T04:29:03;21.00;93.10
71155;DHT22;59375;53.216;5.728;2022-07-25T04:31:29;21.10;93.10
71155;DHT22;59375;53.216;5.728;2022-07-25T04:33:54;21.10;93.10
71155;DHT22;59375;53.216;5.728;2022-07-25T04:36:20;21.10;93.10
71155;DHT22;59375;53.216;5.728;2022-07-25T04:38:45;21.10;93.00
71155;DHT22;59375;53.216;5.728;2022-07-25T04:41:11;21.10;93.00
71155;DHT22;59375;53.216;5.728;2022-07-25T04:43:36;21.10;93.00
71155;DHT22;59375;53.216;5.728;2022-07-25T04:46:02;21.20;93.00
71155;DHT22;59375;53.216;5.728;2022-07-25T04:48:28;21.20;93.00
71155;DHT22;59375;53.216;5.728;2022-07-25T04:50:53;21.20;93.00
71155;DHT22;59375;53.216;5.728;2022-07-25T04:53:19;21.20;93.00
71155;DHT22;59375;53.216;5.728;2022-07-25T04:55:45;21.30;93.10
71155;DHT22;59375;53.216;5.728;2022-07-25T04:58:10;21.30;93.20
71155;DHT22;59375;53.216;5.728;2022-07-25T05:00:36;21.30;93.30
71155;DHT22;59375;53.216;5.728;2022-07-25T05:03:01;21.30;93.30
71155;DHT22;59375;53.216;5.728;2022-07-25T05:05:27;21.40;93.40
71155;DHT22;59375;53.216;5.728;2022-07-25T05:07:58;21.40;93.50
71155;DHT22;59375;53.216;5.728;2022-07-25T05:10:25;21.40;93.50
71155;DHT22;59375;53.216;5.728;2022-07-25T05:12:51;21.40;93.60
71155;DHT22;59375;53.216;5.728;2022-07-25T05:15:17;21.40;93.60
71155;DHT22;59375;53.216;5.728;2022-07-25T05:17:42;21.30;93.70
71155;DHT22;59375;53.216;5.728;2022-07-25T05:20:09;21.30;93.70
71155;DHT22;59375;53.216;5.728;2022-07-25T05:22:35;21.20;93.90
71155;DHT22;59375;53.216;5.728;2022-07-25T05:25:01;21.20;94.10
71155;DHT22;59375;53.216;5.728;2022-07-25T05:27:27;21.10;94.20
71155;DHT22;59375;53.216;5.728;2022-07-25T05:29:53;21.20;94.30
71155;DHT22;59375;53.216;5.728;2022-07-25T05:32:18;21.20;94.30
71155;DHT22;59375;53.216;5.728;2022-07-25T05:34:44;21.20;94.30
71155;DHT22;59375;53.216;5.728;2022-07-25T05:37:10;21.40;94.40
71155;DHT22;59375;53.216;5.728;2022-07-25T05:39:35;21.50;94.60
71155;DHT22;59375;53.216;5.728;2022-07-25T05:42:04;21.60;94.20
71155;DHT22;59375;53.216;5.728;2022-07-25T05:44:29;21.70;93.90
71155;DHT22;59375;53.216;5.728;2022-07-25T05:46:55;21.80;93.60
71155;DHT22;59375;53.216;5.728;2022-07-25T05:49:20;21.90;93.40
71155;DHT22;59375;53.216;5.728;2022-07-25T05:51:46;22.00;93.30
71155;DHT22;59375;53.216;5.728;2022-07-25T05:54:11;22.10;93.10
71155;DHT22;59375;53.216;5.728;2022-07-25T05:56:37;22.10;93.00
71155;DHT22;59375;53.216;5.728;2022-07-25T05:59:02;22.20;92.90
71155;DHT22;59375;53.216;5.728;2022-07-25T06:01:28;22.20;92.80
71155;DHT22;59375;53.216;5.728;2022-07-25T06:03:53;22.20;92.70
71155;DHT22;59375;53.216;5.728;2022-07-25T06:06:19;22.20;92.60
71155;DHT22;59375;53.216;5.728;2022-07-25T06:08:44;22.30;92.60
71155;DHT22;59375;53.216;5.728;2022-07-25T06:11:10;22.40;92.40
71155;DHT22;59375;53.216;5.728;2022-07-25T06:13:36;22.50;92.30
71155;DHT22;59375;53.216;5.728;2022-07-25T06:16:01;22.50;92.30
71155;DHT22;59375;53.216;5.728;2022-07-25T06:18:28;22.50;92.20
71155;DHT22;59375;53.216;5.728;2022-07-25T06:20:53;22.60;92.20
71155;DHT22;59375;53.216;5.728;2022-07-25T06:23:19;22.70;92.30
71155;DHT22;59375;53.216;5.728;2022-07-25T06:25:45;22.70;92.00
71155;DHT22;59375;53.216;5.728;2022-07-25T06:28:12;22.80;91.80
71155;DHT22;59375;53.216;5.728;2022-07-25T06:30:39;22.80;91.70
71155;DHT22;59375;53.216;5.728;2022-07-25T06:33:05;22.80;91.50
71155;DHT22;59375;53.216;5.728;2022-07-25T06:35:31;22.80;91.30
71155;DHT22;59375;53.216;5.728;2022-07-25T06:37:56;22.90;91.30
71155;DHT22;59375;53.216;5.728;2022-07-25T06:40:22;23.00;91.10
71155;DHT22;59375;53.216;5.728;2022-07-25T06:42:47;23.10;90.90
71155;DHT22;59375;53.216;5.728;2022-07-25T06:45:14;23.30;90.60
71155;DHT22;59375;53.216;5.728;2022-07-25T06:47:41;23.50;90.40
71155;DHT22;59375;53.216;5.728;2022-07-25T06:50:13;23.60;90.00
71155;DHT22;59375;53.216;5.728;2022-07-25T06:52:39;23.80;89.30
71155;DHT22;59375;53.216;5.728;2022-07-25T06:55:06;23.90;88.20
71155;DHT22;59375;53.216;5.728;2022-07-25T06:57:32;23.80;87.30
71155;DHT22;59375;53.216;5.728;2022-07-25T06:59:58;23.80;87.10
71155;DHT22;59375;53.216;5.728;2022-07-25T07:02:23;23.70;86.20
71155;DHT22;59375;53.216;5.728;2022-07-25T07:04:49;23.60;86.70
71155;DHT22;59375;53.216;5.728;2022-07-25T07:07:15;23.50;87.10
71155;DHT22;59375;53.216;5.728;2022-07-25T07:09:41;23.40;87.50
71155;DHT22;59375;53.216;5.728;2022-07-25T07:12:08;23.30;87.90
71155;DHT22;59375;53.216;5.728;2022-07-25T07:14:34;23.10;89.00
71155;DHT22;59375;53.216;5.728;2022-07-25T07:16:59;23.00;90.10
71155;DHT22;59375;53.216;5.728;2022-07-25T07:19:25;22.90;90.40
71155;DHT22;59375;53.216;5.728;2022-07-25T07:21:50;22.80;90.70
71155;DHT22;59375;53.216;5.728;2022-07-25T07:24:16;22.70;90.70
71155;DHT22;59375;53.216;5.728;2022-07-25T07:26:42;22.60;90.30
71155;DHT22;59375;53.216;5.728;2022-07-25T07:29:08;22.50;90.40
71155;DHT22;59375;53.216;5.728;2022-07-25T07:31:33;22.40;90.50
71155;DHT22;59375;53.216;5.728;2022-07-25T07:33:59;22.30;90.60
71155;DHT22;59375;53.216;5.728;2022-07-25T07:36:24;22.20;90.70
71155;DHT22;59375;53.216;5.728;2022-07-25T07:38:50;22.10;90.70
71155;DHT22;59375;53.216;5.728;2022-07-25T07:41:17;22.10;90.80
71155;DHT22;59375;53.216;5.728;2022-07-25T07:43:43;22.00;90.80
71155;DHT22;59375;53.216;5.728;2022-07-25T07:46:09;22.00;90.90
71155;DHT22;59375;53.216;5.728;2022-07-25T07:48:34;22.00;91.00
71155;DHT22;59375;53.216;5.728;2022-07-25T07:51:00;22.00;91.20
71155;DHT22;59375;53.216;5.728;2022-07-25T07:53:27;22.00;91.20
71155;DHT22;59375;53.216;5.728;2022-07-25T07:56:12;22.10;91.40
71155;DHT22;59375;53.216;5.728;2022-07-25T07:58:37;22.10;91.60
71155;DHT22;59375;53.216;5.728;2022-07-25T08:01:03;22.00;91.70
71155;DHT22;59375;53.216;5.728;2022-07-25T08:03:29;22.00;91.70
71155;DHT22;59375;53.216;5.728;2022-07-25T08:05:54;22.00;91.60
71155;DHT22;59375;53.216;5.728;2022-07-25T08:08:20;22.10;91.70
71155;DHT22;59375;53.216;5.728;2022-07-25T08:10:47;22.20;91.60
71155;DHT22;59375;53.216;5.728;2022-07-25T08:13:18;22.20;91.50
71155;DHT22;59375;53.216;5.728;2022-07-25T08:15:47;22.40;91.50
71155;DHT22;59375;53.216;5.728;2022-07-25T08:18:13;22.40;91.60
71155;DHT22;59375;53.216;5.728;2022-07-25T08:20:39;22.50;91.50
71155;DHT22;59375;53.216;5.728;2022-07-25T08:23:06;22.60;91.30
71155;DHT22;59375;53.216;5.728;2022-07-25T08:25:32;22.70;91.40
71155;DHT22;59375;53.216;5.728;2022-07-25T08:27:58;22.90;91.50
71155;DHT22;59375;53.216;5.728;2022-07-25T08:30:24;23.10;91.40
71155;DHT22;59375;53.216;5.728;2022-07-25T08:32:55;23.20;91.10
71155;DHT22;59375;53.216;5.728;2022-07-25T08:35:23;23.30;91.10
71155;DHT22;59375;53.216;5.728;2022-07-25T08:37:49;23.30;90.70
71155;DHT22;59375;53.216;5.728;2022-07-25T08:40:17;23.30;90.60
71155;DHT22;59375;53.216;5.728;2022-07-25T08:42:43;23.30;90.80
71155;DHT22;59375;53.216;5.728;2022-07-25T08:45:11;23.30;90.80
71155;DHT22;59375;53.216;5.728;2022-07-25T08:47:38;23.20;90.50
71155;DHT22;59375;53.216;5.728;2022-07-25T08:50:10;23.10;90.60
71155;DHT22;59375;53.216;5.728;2022-07-25T08:52:37;23.00;90.80
71155;DHT22;59375;53.216;5.728;2022-07-25T08:55:08;22.90;90.90
71155;DHT22;59375;53.216;5.728;2022-07-25T08:57:36;22.80;91.10
71155;DHT22;59375;53.216;5.728;2022-07-25T09:00:04;22.70;91.40
71155;DHT22;59375;53.216;5.728;2022-07-25T09:02:29;22.50;91.80
71155;DHT22;59375;53.216;5.728;2022-07-25T09:04:57;22.40;92.30
71155;DHT22;59375;53.216;5.728;2022-07-25T09:07:30;22.40;92.60
71155;DHT22;59375;53.216;5.728;2022-07-25T09:09:55;22.30;92.70
71155;DHT22;59375;53.216;5.728;2022-07-25T09:12:25;22.30;92.80
71155;DHT22;59375;53.216;5.728;2022-07-25T09:14:51;22.40;93.20
71155;DHT22;59375;53.216;5.728;2022-07-25T09:17:17;22.40;93.20
71155;DHT22;59375;53.216;5.728;2022-07-25T09:19:51;22.50;93.10
71155;DHT22;59375;53.216;5.728;2022-07-25T09:22:17;22.50;93.30
71155;DHT22;59375;53.216;5.728;2022-07-25T09:24:46;22.60;93.40
71155;DHT22;59375;53.216;5.728;2022-07-25T09:27:12;22.80;93.40
71155;DHT22;59375;53.216;5.728;2022-07-25T09:29:38;23.00;93.20
71155;DHT22;59375;53.216;5.728;2022-07-25T09:32:18;23.10;92.90
71155;DHT22;59375;53.216;5.728;2022-07-25T09:34:46;23.20;93.10
71155;DHT22;59375;53.216;5.728;2022-07-25T09:37:13;23.20;92.60
71155;DHT22;59375;53.216;5.728;2022-07-25T09:39:48;23.10;92.00
71155;DHT22;59375;53.216;5.728;2022-07-25T09:42:23;23.10;92.20
71155;DHT22;59375;53.216;5.728;2022-07-25T09:47:25;23.20;92.10
71155;DHT22;59375;53.216;5.728;2022-07-25T09:49:51;23.30;91.60
71155;DHT22;59375;53.216;5.728;2022-07-25T09:52:17;23.30;91.50
71155;DHT22;59375;53.216;5.728;2022-07-25T09:54:43;23.40;91.60
71155;DHT22;59375;53.216;5.728;2022-07-25T09:57:08;23.50;91.90
71155;DHT22;59375;53.216;5.728;2022-07-25T09:59:35;23.70;91.50
71155;DHT22;59375;53.216;5.728;2022-07-25T10:07:20;24.00;90.50
71155;DHT22;59375;53.216;5.728;2022-07-25T10:09:48;24.00;90.10
71155;DHT22;59375;53.216;5.728;2022-07-25T10:12:18;24.00;90.30
71155;DHT22;59375;53.216;5.728;2022-07-25T10:17:28;24.00;90.00
71155;DHT22;59375;53.216;5.728;2022-07-25T10:19:54;24.00;90.00
71155;DHT22;59375;53.216;5.728;2022-07-25T10:22:19;24.00;89.60
71155;DHT22;59375;53.216;5.728;2022-07-25T10:24:46;24.00;90.00
71155;DHT22;59375;53.216;5.728;2022-07-25T10:27:14;24.00;89.40
71155;DHT22;59375;53.216;5.728;2022-07-25T10:29:51;24.00;89.30
71155;DHT22;59375;53.216;5.728;2022-07-25T10:32:17;24.10;88.60
71155;DHT22;59375;53.216;5.728;2022-07-25T10:34:51;24.10;87.80
71155;DHT22;59375;53.216;5.728;2022-07-25T10:37:17;24.00;87.50
71155;DHT22;59375;53.216;5.728;2022-07-25T10:39:45;23.90;88.00
71155;DHT22;59375;53.216;5.728;2022-07-25T10:42:20;23.80;86.80
71155;DHT22;59375;53.216;5.728;2022-07-25T10:44:53;23.70;86.50
71155;DHT22;59375;53.216;5.728;2022-07-25T10:47:23;23.50;85.90
71155;DHT22;59375;53.216;5.728;2022-07-25T10:49:58;23.40;86.40
71155;DHT22;59375;53.216;5.728;2022-07-25T10:52:27;23.40;87.00
71155;DHT22;59375;53.216;5.728;2022-07-25T10:54:58;23.40;86.60
71155;DHT22;59375;53.216;5.728;2022-07-25T10:57:25;23.40;87.80
71155;DHT22;59375;53.216;5.728;2022-07-25T10:59:50;23.40;87.70
71155;DHT22;59375;53.216;5.728;2022-07-25T11:02:16;23.30;88.60
71155;DHT22;59375;53.216;5.728;2022-07-25T11:04:44;23.30;88.30
71155;DHT22;59375;53.216;5.728;2022-07-25T11:07:12;23.40;88.60
71155;DHT22;59375;53.216;5.728;2022-07-25T11:09:39;23.40;88.80
71155;DHT22;59375;53.216;5.728;2022-07-25T11:12:06;23.40;88.50
71155;DHT22;59375;53.216;5.728;2022-07-25T11:14:39;23.50;88.00
71155;DHT22;59375;53.216;5.728;2022-07-25T11:17:18;23.70;88.80
71155;DHT22;59375;53.216;5.728;2022-07-25T11:22:19;24.20;86.40
71155;DHT22;59375;53.216;5.728;2022-07-25T11:24:46;24.30;85.90
71155;DHT22;59375;53.216;5.728;2022-07-25T11:27:29;24.50;85.90
71155;DHT22;59375;53.216;5.728;2022-07-25T11:30:06;24.80;85.00
71155;DHT22;59375;53.216;5.728;2022-07-25T11:32:42;24.70;84.50
71155;DHT22;59375;53.216;5.728;2022-07-25T11:35:08;24.70;85.40
71155;DHT22;59375;53.216;5.728;2022-07-25T11:37:37;24.80;84.70
71155;DHT22;59375;53.216;5.728;2022-07-25T11:40:04;24.90;84.70
71155;DHT22;59375;53.216;5.728;2022-07-25T11:42:39;25.00;84.10
71155;DHT22;59375;53.216;5.728;2022-07-25T11:45:18;25.00;82.20
71155;DHT22;59375;53.216;5.728;2022-07-25T11:47:44;24.80;82.60
71155;DHT22;59375;53.216;5.728;2022-07-25T11:50:10;24.70;82.20
71155;DHT22;59375;53.216;5.728;2022-07-25T11:52:40;24.60;82.40
71155;DHT22;59375;53.216;5.728;2022-07-25T11:55:16;24.70;82.80
71155;DHT22;59375;53.216;5.728;2022-07-25T11:57:43;24.90;83.60
71155;DHT22;59375;53.216;5.728;2022-07-25T12:02:41;25.00;80.60
71155;DHT22;59375;53.216;5.728;2022-07-25T12:05:12;24.90;80.70
71155;DHT22;59375;53.216;5.728;2022-07-25T12:07:43;24.80;80.60
71155;DHT22;59375;53.216;5.728;2022-07-25T12:10:21;25.00;82.80
71155;DHT22;59375;53.216;5.728;2022-07-25T12:12:55;25.30;80.20
71155;DHT22;59375;53.216;5.728;2022-07-25T12:15:27;25.50;79.70
71155;DHT22;59375;53.216;5.728;2022-07-25T12:17:54;25.80;80.00
71155;DHT22;59375;53.216;5.728;2022-07-25T12:20:24;25.80;80.00
71155;DHT22;59375;53.216;5.728;2022-07-25T12:22:54;25.80;79.60
71155;DHT22;59375;53.216;5.728;2022-07-25T12:25:19;25.90;78.90
71155;DHT22;59375;53.216;5.728;2022-07-25T12:27:45;25.90;79.40
71155;DHT22;59375;53.216;5.728;2022-07-25T12:30:12;26.10;80.00
71155;DHT22;59375;53.216;5.728;2022-07-25T12:32:38;26.30;79.10
71155;DHT22;59375;53.216;5.728;2022-07-25T12:35:05;26.50;78.50
71155;DHT22;59375;53.216;5.728;2022-07-25T12:37:31;26.60;77.10
71155;DHT22;59375;53.216;5.728;2022-07-25T12:39:57;26.50;77.10
71155;DHT22;59375;53.216;5.728;2022-07-25T12:42:23;26.60;77.00
71155;DHT22;59375;53.216;5.728;2022-07-25T12:44:50;26.70;76.40
71155;DHT22;59375;53.216;5.728;2022-07-25T12:47:16;26.70;76.10
71155;DHT22;59375;53.216;5.728;2022-07-25T12:49:41;26.80;77.40
71155;DHT22;59375;53.216;5.728;2022-07-25T12:52:07;26.80;76.10
71155;DHT22;59375;53.216;5.728;2022-07-25T12:54:33;26.70;75.90
71155;DHT22;59375;53.216;5.728;2022-07-25T12:56:58;26.40;75.30
71155;DHT22;59375;53.216;5.728;2022-07-25T12:59:24;26.20;76.40
71155;DHT22;59375;53.216;5.728;2022-07-25T13:01:50;26.00;76.70
71155;DHT22;59375;53.216;5.728;2022-07-25T13:04:15;25.80;77.50
71155;DHT22;59375;53.216;5.728;2022-07-25T13:06:41;25.80;77.30
71155;DHT22;59375;53.216;5.728;2022-07-25T13:09:06;25.70;78.20
71155;DHT22;59375;53.216;5.728;2022-07-25T13:11:32;25.60;78.20
71155;DHT22;59375;53.216;5.728;2022-07-25T13:13:57;25.60;77.80
71155;DHT22;59375;53.216;5.728;2022-07-25T13:16:23;25.50;77.00
71155;DHT22;59375;53.216;5.728;2022-07-25T13:18:49;25.60;77.80
71155;DHT22;59375;53.216;5.728;2022-07-25T13:21:14;25.70;76.60
71155;DHT22;59375;53.216;5.728;2022-07-25T13:23:40;25.80;76.40
71155;DHT22;59375;53.216;5.728;2022-07-25T13:26:07;25.60;76.50
71155;DHT22;59375;53.216;5.728;2022-07-25T13:28:32;25.50;76.50
71155;DHT22;59375;53.216;5.728;2022-07-25T13:30:58;25.30;78.00
71155;DHT22;59375;53.216;5.728;2022-07-25T13:33:26;25.30;78.00
71155;DHT22;59375;53.216;5.728;2022-07-25T13:35:51;25.20;77.90
71155;DHT22;59375;53.216;5.728;2022-07-25T13:38:17;25.20;78.70
71155;DHT22;59375;53.216;5.728;2022-07-25T13:40:43;25.20;78.50
71155;DHT22;59375;53.216;5.728;2022-07-25T13:43:10;25.30;78.30
71155;DHT22;59375;53.216;5.728;2022-07-25T13:45:36;25.30;78.40
71155;DHT22;59375;53.216;5.728;2022-07-25T13:48:02;25.30;77.90
71155;DHT22;59375;53.216;5.728;2022-07-25T13:50:27;25.20;78.50
71155;DHT22;59375;53.216;5.728;2022-07-25T13:52:53;25.10;78.80
71155;DHT22;59375;53.216;5.728;2022-07-25T13:55:22;25.00;78.50
71155;DHT22;59375;53.216;5.728;2022-07-25T13:57:47;24.90;78.50
71155;DHT22;59375;53.216;5.728;2022-07-25T14:00:13;24.80;79.00
71155;DHT22;59375;53.216;5.728;2022-07-25T14:02:39;24.60;78.90
71155;DHT22;59375;53.216;5.728;2022-07-25T14:05:05;24.50;79.00
71155;DHT22;59375;53.216;5.728;2022-07-25T14:07:32;24.50;79.60
71155;DHT22;59375;53.216;5.728;2022-07-25T14:09:58;24.60;80.00
71155;DHT22;59375;53.216;5.728;2022-07-25T14:12:24;24.60;78.90
71155;DHT22;59375;53.216;5.728;2022-07-25T14:14:49;24.40;79.40
71155;DHT22;59375;53.216;5.728;2022-07-25T14:17:14;24.40;79.00
71155;DHT22;59375;53.216;5.728;2022-07-25T14:19:41;24.40;78.90
71155;DHT22;59375;53.216;5.728;2022-07-25T14:22:06;24.40;79.50
71155;DHT22;59375;53.216;5.728;2022-07-25T14:24:32;24.40;79.40
71155;DHT22;59375;53.216;5.728;2022-07-25T14:26:58;24.40;79.20
71155;DHT22;59375;53.216;5.728;2022-07-25T14:29:23;24.30;79.20
71155;DHT22;59375;53.216;5.728;2022-07-25T14:31:49;24.20;79.80
71155;DHT22;59375;53.216;5.728;2022-07-25T14:34:14;24.20;79.70
71155;DHT22;59375;53.216;5.728;2022-07-25T14:36:40;24.00;79.80
71155;DHT22;59375;53.216;5.728;2022-07-25T14:39:06;23.90;80.60
71155;DHT22;59375;53.216;5.728;2022-07-25T14:41:32;24.10;81.50
71155;DHT22;59375;53.216;5.728;2022-07-25T14:43:58;24.30;79.50
71155;DHT22;59375;53.216;5.728;2022-07-25T14:46:24;24.60;78.90
71155;DHT22;59375;53.216;5.728;2022-07-25T14:48:49;24.80;77.90
71155;DHT22;59375;53.216;5.728;2022-07-25T14:51:16;24.90;77.10
71155;DHT22;59375;53.216;5.728;2022-07-25T14:53:42;25.00;76.00
71155;DHT22;59375;53.216;5.728;2022-07-25T14:56:08;24.90;74.50
71155;DHT22;59375;53.216;5.728;2022-07-25T14:58:34;24.80;74.30
71155;DHT22;59375;53.216;5.728;2022-07-25T15:01:00;24.80;74.60
71155;DHT22;59375;53.216;5.728;2022-07-25T15:03:25;24.60;75.10
71155;DHT22;59375;53.216;5.728;2022-07-25T15:05:51;24.60;76.50
71155;DHT22;59375;53.216;5.728;2022-07-25T15:08:16;24.60;77.10
71155;DHT22;59375;53.216;5.728;2022-07-25T15:10:42;24.60;75.70
71155;DHT22;59375;53.216;5.728;2022-07-25T15:13:08;24.50;76.40
71155;DHT22;59375;53.216;5.728;2022-07-25T15:15:33;24.50;76.10
71155;DHT22;59375;53.216;5.728;2022-07-25T15:18:00;24.40;77.10
71155;DHT22;59375;53.216;5.728;2022-07-25T15:20:25;24.30;77.10
71155;DHT22;59375;53.216;5.728;2022-07-25T15:22:51;24.10;78.00
71155;DHT22;59375;53.216;5.728;2022-07-25T15:25:16;24.00;79.40
71155;DHT22;59375;53.216;5.728;2022-07-25T15:27:42;24.00;79.00
71155;DHT22;59375;53.216;5.728;2022-07-25T15:30:08;24.00;80.10
71155;DHT22;59375;53.216;5.728;2022-07-25T15:32:34;24.10;79.60
71155;DHT22;59375;53.216;5.728;2022-07-25T15:34:59;24.00;79.20
71155;DHT22;59375;53.216;5.728;2022-07-25T15:37:26;24.00;80.10
71155;DHT22;59375;53.216;5.728;2022-07-25T15:39:52;23.90;80.80
71155;DHT22;59375;53.216;5.728;2022-07-25T15:42:17;23.90;79.90